sensor_id;sensor_type;location;lat;lon;timestamp;P1;durP1;ratioP1;P2;durP2;ratioP2
46086;SDS011;31824;49.648;8.640;2024-03-07T00:00:43;24.70;;;10.85;;
46086;SDS011;31824;49.648;8.640;2024-03-07T00:03:46;23.45;;;10.90;;
46086;SDS011;31824;49.648;8.640;2024-03-07T00:06:48;23.25;;;9.80;;
46086;SDS011;31824;49.648;8.640;2024-03-07T00:09:50;23.33;;;10.38;;
46086;SDS011;31824;49.648;8.640;2024-03-07T00:12:54;22.25;;;10.35;;
46086;SDS011;31824;49.648;8.640;2024-03-07T00:15:55;20.58;;;9.88;;
46086;SDS011;31824;49.648;8.640;2024-03-07T00:18:59;21.40;;;10.32;;
46086;SDS011;31824;49.648;8.640;2024-03-07T00:22:01;22.67;;;10.02;;
46086;SDS011;31824;49.648;8.640;2024-03-07T00:25:03;23.33;;;10.52;;
46086;SDS011;31824;49.648;8.640;2024-03-07T00:28:10;22.17;;;11.32;;
46086;SDS011;31824;49.648;8.640;2024-03-07T00:31:12;20.92;;;9.75;;
46086;SDS011;31824;49.648;8.640;2024-03-07T00:34:15;24.15;;;10.65;;
46086;SDS011;31824;49.648;8.640;2024-03-07T00:37:26;25.33;;;10.82;;
46086;SDS011;31824;49.648;8.640;2024-03-07T00:40:27;24.75;;;11.25;;
46086;SDS011;31824;49.648;8.640;2024-03-07T00:43:29;24.75;;;11.02;;
46086;SDS011;31824;49.648;8.640;2024-03-07T00:46:31;21.52;;;9.80;;
46086;SDS011;31824;49.648;8.640;2024-03-07T00:49:34;21.70;;;10.07;;
46086;SDS011;31824;49.648;8.640;2024-03-07T00:52:36;23.80;;;11.15;;
46086;SDS011;31824;49.648;8.640;2024-03-07T00:55:38;22.90;;;10.27;;
46086;SDS011;31824;49.648;8.640;2024-03-07T00:58:40;23.17;;;10.48;;
46086;SDS011;31824;49.648;8.640;2024-03-07T01:01:42;21.70;;;10.05;;
46086;SDS011;31824;49.648;8.640;2024-03-07T01:04:45;24.65;;;10.73;;
46086;SDS011;31824;49.648;8.640;2024-03-07T01:07:47;25.25;;;10.80;;
46086;SDS011;31824;49.648;8.640;2024-03-07T01:10:49;23.25;;;11.10;;
46086;SDS011;31824;49.648;8.640;2024-03-07T01:13:51;22.02;;;10.43;;
46086;SDS011;31824;49.648;8.640;2024-03-07T01:16:53;24.55;;;12.02;;
46086;SDS011;31824;49.648;8.640;2024-03-07T01:19:56;26.00;;;11.85;;
46086;SDS011;31824;49.648;8.640;2024-03-07T01:22:59;23.42;;;10.35;;
46086;SDS011;31824;49.648;8.640;2024-03-07T01:26:01;23.80;;;10.20;;
46086;SDS011;31824;49.648;8.640;2024-03-07T01:29:03;24.08;;;9.98;;
46086;SDS011;31824;49.648;8.640;2024-03-07T01:32:08;23.75;;;10.38;;
46086;SDS011;31824;49.648;8.640;2024-03-07T01:35:11;25.25;;;10.48;;
46086;SDS011;31824;49.648;8.640;2024-03-07T01:38:15;22.33;;;10.27;;
46086;SDS011;31824;49.648;8.640;2024-03-07T01:41:18;26.80;;;9.93;;
46086;SDS011;31824;49.648;8.640;2024-03-07T01:44:20;24.05;;;10.73;;
46086;SDS011;31824;49.648;8.640;2024-03-07T01:47:22;22.75;;;10.13;;
46086;SDS011;31824;49.648;8.640;2024-03-07T01:50:25;22.27;;;10.15;;
46086;SDS011;31824;49.648;8.640;2024-03-07T01:53:27;17.60;;;8.95;;
46086;SDS011;31824;49.648;8.640;2024-03-07T01:56:31;22.25;;;9.80;;
46086;SDS011;31824;49.648;8.640;2024-03-07T01:59:33;20.48;;;9.95;;
46086;SDS011;31824;49.648;8.640;2024-03-07T02:02:34;24.15;;;10.75;;
46086;SDS011;31824;49.648;8.640;2024-03-07T02:05:38;22.67;;;9.98;;
46086;SDS011;31824;49.648;8.640;2024-03-07T02:08:39;24.95;;;9.00;;
46086;SDS011;31824;49.648;8.640;2024-03-07T02:11:41;23.92;;;9.85;;
46086;SDS011;31824;49.648;8.640;2024-03-07T02:14:43;21.85;;;9.82;;
46086;SDS011;31824;49.648;8.640;2024-03-07T02:17:45;22.02;;;8.40;;
46086;SDS011;31824;49.648;8.640;2024-03-07T02:20:49;20.08;;;10.15;;
46086;SDS011;31824;49.648;8.640;2024-03-07T02:23:51;17.13;;;8.50;;
46086;SDS011;31824;49.648;8.640;2024-03-07T02:26:53;22.02;;;8.75;;
46086;SDS011;31824;49.648;8.640;2024-03-07T02:29:55;18.95;;;8.98;;
46086;SDS011;31824;49.648;8.640;2024-03-07T02:32:57;19.05;;;9.23;;
46086;SDS011;31824;49.648;8.640;2024-03-07T02:36:02;21.58;;;8.60;;
46086;SDS011;31824;49.648;8.640;2024-03-07T02:39:04;26.60;;;9.00;;
46086;SDS011;31824;49.648;8.640;2024-03-07T02:42:07;20.75;;;9.68;;
46086;SDS011;31824;49.648;8.640;2024-03-07T02:45:09;20.23;;;8.88;;
46086;SDS011;31824;49.648;8.640;2024-03-07T02:48:14;19.27;;;9.57;;
46086;SDS011;31824;49.648;8.640;2024-03-07T02:51:19;20.85;;;9.15;;
46086;SDS011;31824;49.648;8.640;2024-03-07T02:54:21;18.83;;;8.90;;
46086;SDS011;31824;49.648;8.640;2024-03-07T02:57:23;21.65;;;9.68;;
46086;SDS011;31824;49.648;8.640;2024-03-07T03:00:25;18.65;;;8.77;;
46086;SDS011;31824;49.648;8.640;2024-03-07T03:03:31;22.88;;;9.35;;
46086;SDS011;31824;49.648;8.640;2024-03-07T03:06:34;18.55;;;8.70;;
46086;SDS011;31824;49.648;8.640;2024-03-07T03:09:36;19.95;;;9.38;;
46086;SDS011;31824;49.648;8.640;2024-03-07T03:12:44;21.70;;;9.35;;
46086;SDS011;31824;49.648;8.640;2024-03-07T03:15:46;18.70;;;9.35;;
46086;SDS011;31824;49.648;8.640;2024-03-07T03:18:48;17.20;;;8.32;;
46086;SDS011;31824;49.648;8.640;2024-03-07T03:21:51;19.20;;;8.27;;
46086;SDS011;31824;49.648;8.640;2024-03-07T03:24:53;20.60;;;9.20;;
46086;SDS011;31824;49.648;8.640;2024-03-07T03:27:56;18.13;;;8.55;;
46086;SDS011;31824;49.648;8.640;2024-03-07T03:30:59;20.65;;;9.38;;
46086;SDS011;31824;49.648;8.640;2024-03-07T03:34:01;26.23;;;9.00;;
46086;SDS011;31824;49.648;8.640;2024-03-07T03:37:04;22.13;;;9.30;;
46086;SDS011;31824;49.648;8.640;2024-03-07T03:40:06;20.83;;;9.20;;
46086;SDS011;31824;49.648;8.640;2024-03-07T03:43:10;20.85;;;8.80;;
46086;SDS011;31824;49.648;8.640;2024-03-07T03:46:12;16.58;;;8.70;;
46086;SDS011;31824;49.648;8.640;2024-03-07T03:49:14;19.83;;;8.98;;
46086;SDS011;31824;49.648;8.640;2024-03-07T03:52:18;16.52;;;8.05;;
46086;SDS011;31824;49.648;8.640;2024-03-07T03:55:20;19.65;;;9.02;;
46086;SDS011;31824;49.648;8.640;2024-03-07T03:58:23;17.23;;;8.00;;
46086;SDS011;31824;49.648;8.640;2024-03-07T04:01:25;19.02;;;9.00;;
46086;SDS011;31824;49.648;8.640;2024-03-07T04:04:26;19.17;;;9.57;;
46086;SDS011;31824;49.648;8.640;2024-03-07T04:07:30;19.02;;;8.85;;
46086;SDS011;31824;49.648;8.640;2024-03-07T04:10:34;18.15;;;8.70;;
46086;SDS011;31824;49.648;8.640;2024-03-07T04:13:36;17.50;;;8.75;;
46086;SDS011;31824;49.648;8.640;2024-03-07T04:16:38;18.98;;;9.18;;
46086;SDS011;31824;49.648;8.640;2024-03-07T04:19:40;17.52;;;8.00;;
46086;SDS011;31824;49.648;8.640;2024-03-07T04:22:48;20.88;;;8.90;;
46086;SDS011;31824;49.648;8.640;2024-03-07T04:25:51;21.27;;;8.20;;
46086;SDS011;31824;49.648;8.640;2024-03-07T04:28:53;21.90;;;8.68;;
46086;SDS011;31824;49.648;8.640;2024-03-07T04:31:54;20.33;;;8.38;;
46086;SDS011;31824;49.648;8.640;2024-03-07T04:34:56;20.73;;;8.13;;
46086;SDS011;31824;49.648;8.640;2024-03-07T04:38:00;21.83;;;8.40;;
46086;SDS011;31824;49.648;8.640;2024-03-07T04:41:02;19.63;;;8.32;;
46086;SDS011;31824;49.648;8.640;2024-03-07T04:44:05;24.63;;;8.75;;
46086;SDS011;31824;49.648;8.640;2024-03-07T04:47:07;20.13;;;9.60;;
46086;SDS011;31824;49.648;8.640;2024-03-07T04:50:09;20.73;;;9.38;;
46086;SDS011;31824;49.648;8.640;2024-03-07T04:53:16;19.25;;;8.52;;
46086;SDS011;31824;49.648;8.640;2024-03-07T04:56:17;18.20;;;8.25;;
46086;SDS011;31824;49.648;8.640;2024-03-07T04:59:20;17.25;;;8.45;;
46086;SDS011;31824;49.648;8.640;2024-03-07T05:02:23;20.75;;;8.80;;
46086;SDS011;31824;49.648;8.640;2024-03-07T05:05:25;16.02;;;8.35;;
46086;SDS011;31824;49.648;8.640;2024-03-07T05:08:29;24.10;;;9.30;;
46086;SDS011;31824;49.648;8.640;2024-03-07T05:11:31;22.52;;;8.73;;
46086;SDS011;31824;49.648;8.640;2024-03-07T05:14:33;18.92;;;9.32;;
46086;SDS011;31824;49.648;8.640;2024-03-07T05:17:35;19.38;;;8.85;;
46086;SDS011;31824;49.648;8.640;2024-03-07T05:20:39;17.73;;;8.18;;
46086;SDS011;31824;49.648;8.640;2024-03-07T05:23:42;21.00;;;8.27;;
46086;SDS011;31824;49.648;8.640;2024-03-07T05:26:44;23.65;;;8.55;;
46086;SDS011;31824;49.648;8.640;2024-03-07T05:29:46;19.75;;;8.68;;
46086;SDS011;31824;49.648;8.640;2024-03-07T05:32:48;20.35;;;8.45;;
46086;SDS011;31824;49.648;8.640;2024-03-07T05:35:50;18.70;;;9.27;;
46086;SDS011;31824;49.648;8.640;2024-03-07T05:39:05;19.63;;;8.55;;
46086;SDS011;31824;49.648;8.640;2024-03-07T05:42:12;18.40;;;8.25;;
46086;SDS011;31824;49.648;8.640;2024-03-07T05:45:15;20.45;;;8.95;;
46086;SDS011;31824;49.648;8.640;2024-03-07T05:48:19;19.58;;;8.90;;
46086;SDS011;31824;49.648;8.640;2024-03-07T05:51:21;19.60;;;9.13;;
46086;SDS011;31824;49.648;8.640;2024-03-07T05:54:25;18.38;;;7.97;;
46086;SDS011;31824;49.648;8.640;2024-03-07T05:57:27;23.30;;;9.80;;
46086;SDS011;31824;49.648;8.640;2024-03-07T06:00:29;16.95;;;7.80;;
46086;SDS011;31824;49.648;8.640;2024-03-07T06:03:31;17.95;;;8.18;;
46086;SDS011;31824;49.648;8.640;2024-03-07T06:06:33;18.65;;;8.25;;
46086;SDS011;31824;49.648;8.640;2024-03-07T06:09:38;24.50;;;9.60;;
46086;SDS011;31824;49.648;8.640;2024-03-07T06:12:40;20.80;;;9.50;;
46086;SDS011;31824;49.648;8.640;2024-03-07T06:16:05;22.70;;;9.80;;
46086;SDS011;31824;49.648;8.640;2024-03-07T06:19:09;20.73;;;9.95;;
46086;SDS011;31824;49.648;8.640;2024-03-07T06:22:12;22.45;;;9.63;;
46086;SDS011;31824;49.648;8.640;2024-03-07T06:25:16;25.50;;;9.30;;
46086;SDS011;31824;49.648;8.640;2024-03-07T06:28:21;21.70;;;10.15;;
46086;SDS011;31824;49.648;8.640;2024-03-07T06:31:23;21.08;;;9.18;;
46086;SDS011;31824;49.648;8.640;2024-03-07T06:34:25;21.25;;;9.25;;
46086;SDS011;31824;49.648;8.640;2024-03-07T06:37:28;19.70;;;8.75;;
46086;SDS011;31824;49.648;8.640;2024-03-07T06:40:32;22.15;;;8.88;;
46086;SDS011;31824;49.648;8.640;2024-03-07T06:43:34;25.90;;;9.05;;
46086;SDS011;31824;49.648;8.640;2024-03-07T06:46:35;19.27;;;8.63;;
46086;SDS011;31824;49.648;8.640;2024-03-07T06:49:37;21.67;;;8.05;;
46086;SDS011;31824;49.648;8.640;2024-03-07T06:52:41;25.45;;;9.50;;
46086;SDS011;31824;49.648;8.640;2024-03-07T06:55:44;22.70;;;9.35;;
46086;SDS011;31824;49.648;8.640;2024-03-07T06:58:46;16.73;;;7.78;;
46086;SDS011;31824;49.648;8.640;2024-03-07T07:01:48;21.40;;;9.10;;
46086;SDS011;31824;49.648;8.640;2024-03-07T07:04:50;21.33;;;8.93;;
46086;SDS011;31824;49.648;8.640;2024-03-07T07:07:53;22.33;;;9.38;;
46086;SDS011;31824;49.648;8.640;2024-03-07T07:10:57;17.52;;;8.05;;
46086;SDS011;31824;49.648;8.640;2024-03-07T07:13:59;20.63;;;8.82;;
46086;SDS011;31824;49.648;8.640;2024-03-07T07:17:00;20.50;;;8.60;;
46086;SDS011;31824;49.648;8.640;2024-03-07T07:20:03;22.70;;;9.20;;
46086;SDS011;31824;49.648;8.640;2024-03-07T07:23:11;18.63;;;8.38;;
46086;SDS011;31824;49.648;8.640;2024-03-07T07:26:16;18.70;;;8.85;;
46086;SDS011;31824;49.648;8.640;2024-03-07T07:29:17;22.60;;;9.82;;
46086;SDS011;31824;49.648;8.640;2024-03-07T07:32:20;22.02;;;9.73;;
46086;SDS011;31824;49.648;8.640;2024-03-07T07:35:22;18.95;;;8.60;;
46086;SDS011;31824;49.648;8.640;2024-03-07T07:38:24;22.25;;;9.48;;
46086;SDS011;31824;49.648;8.640;2024-03-07T07:41:27;21.10;;;10.27;;
46086;SDS011;31824;49.648;8.640;2024-03-07T07:44:29;22.60;;;10.38;;
46086;SDS011;31824;49.648;8.640;2024-03-07T07:47:31;21.00;;;9.63;;
46086;SDS011;31824;49.648;8.640;2024-03-07T07:50:37;19.13;;;10.02;;
46086;SDS011;31824;49.648;8.640;2024-03-07T07:53:40;26.10;;;9.27;;
46086;SDS011;31824;49.648;8.640;2024-03-07T07:56:43;19.02;;;10.38;;
46086;SDS011;31824;49.648;8.640;2024-03-07T07:59:45;23.80;;;10.77;;
46086;SDS011;31824;49.648;8.640;2024-03-07T08:02:48;25.42;;;10.55;;
46086;SDS011;31824;49.648;8.640;2024-03-07T08:05:51;19.48;;;9.30;;
46086;SDS011;31824;49.648;8.640;2024-03-07T08:08:53;20.15;;;8.65;;
46086;SDS011;31824;49.648;8.640;2024-03-07T08:11:57;23.90;;;9.73;;
46086;SDS011;31824;49.648;8.640;2024-03-07T08:14:59;21.00;;;9.45;;
46086;SDS011;31824;49.648;8.640;2024-03-07T08:18:01;22.70;;;9.70;;
46086;SDS011;31824;49.648;8.640;2024-03-07T08:21:03;19.70;;;8.98;;
46086;SDS011;31824;49.648;8.640;2024-03-07T08:24:06;15.63;;;7.65;;
46086;SDS011;31824;49.648;8.640;2024-03-07T08:27:13;14.23;;;5.45;;
46086;SDS011;31824;49.648;8.640;2024-03-07T08:30:17;13.85;;;6.60;;
46086;SDS011;31824;49.648;8.640;2024-03-07T08:33:19;16.92;;;6.35;;
46086;SDS011;31824;49.648;8.640;2024-03-07T08:36:23;12.13;;;5.57;;
46086;SDS011;31824;49.648;8.640;2024-03-07T08:39:25;15.65;;;6.65;;
46086;SDS011;31824;49.648;8.640;2024-03-07T08:42:28;13.02;;;5.65;;
46086;SDS011;31824;49.648;8.640;2024-03-07T08:45:30;15.95;;;6.68;;
46086;SDS011;31824;49.648;8.640;2024-03-07T08:48:36;7.10;;;1.60;;
46086;SDS011;31824;49.648;8.640;2024-03-07T08:51:38;13.30;;;6.10;;
46086;SDS011;31824;49.648;8.640;2024-03-07T08:54:40;14.13;;;6.47;;
46086;SDS011;31824;49.648;8.640;2024-03-07T08:57:43;14.13;;;5.97;;
46086;SDS011;31824;49.648;8.640;2024-03-07T09:00:50;11.63;;;5.70;;
46086;SDS011;31824;49.648;8.640;2024-03-07T09:03:53;10.75;;;5.40;;
46086;SDS011;31824;49.648;8.640;2024-03-07T09:06:55;13.40;;;6.60;;
46086;SDS011;31824;49.648;8.640;2024-03-07T09:09:57;14.40;;;6.20;;
46086;SDS011;31824;49.648;8.640;2024-03-07T09:13:00;11.32;;;5.55;;
46086;SDS011;31824;49.648;8.640;2024-03-07T09:16:02;15.05;;;6.22;;
46086;SDS011;31824;49.648;8.640;2024-03-07T09:19:06;11.77;;;5.40;;
46086;SDS011;31824;49.648;8.640;2024-03-07T09:22:09;13.32;;;6.15;;
46086;SDS011;31824;49.648;8.640;2024-03-07T09:25:11;15.82;;;6.40;;
46086;SDS011;31824;49.648;8.640;2024-03-07T09:28:16;15.50;;;5.88;;
46086;SDS011;31824;49.648;8.640;2024-03-07T09:31:18;13.10;;;6.88;;
46086;SDS011;31824;49.648;8.640;2024-03-07T09:34:20;13.75;;;6.75;;
46086;SDS011;31824;49.648;8.640;2024-03-07T09:37:22;12.73;;;6.45;;
46086;SDS011;31824;49.648;8.640;2024-03-07T09:40:25;15.82;;;6.53;;
46086;SDS011;31824;49.648;8.640;2024-03-07T09:43:30;14.52;;;6.28;;
46086;SDS011;31824;49.648;8.640;2024-03-07T09:46:34;11.10;;;5.75;;
46086;SDS011;31824;49.648;8.640;2024-03-07T09:49:37;13.20;;;6.28;;
46086;SDS011;31824;49.648;8.640;2024-03-07T09:52:39;14.55;;;6.75;;
46086;SDS011;31824;49.648;8.640;2024-03-07T09:55:43;11.73;;;5.70;;
46086;SDS011;31824;49.648;8.640;2024-03-07T09:58:47;12.00;;;5.65;;
46086;SDS011;31824;49.648;8.640;2024-03-07T10:01:51;13.55;;;6.20;;
46086;SDS011;31824;49.648;8.640;2024-03-07T10:07:58;12.43;;;6.28;;
46086;SDS011;31824;49.648;8.640;2024-03-07T10:11:00;14.30;;;6.53;;
46086;SDS011;31824;49.648;8.640;2024-03-07T10:14:03;9.50;;;4.57;;
46086;SDS011;31824;49.648;8.640;2024-03-07T10:17:06;15.02;;;7.07;;
46086;SDS011;31824;49.648;8.640;2024-03-07T10:20:08;8.32;;;4.32;;
46086;SDS011;31824;49.648;8.640;2024-03-07T10:23:18;15.48;;;7.55;;
46086;SDS011;31824;49.648;8.640;2024-03-07T10:26:20;17.08;;;7.35;;
46086;SDS011;31824;49.648;8.640;2024-03-07T10:29:24;11.88;;;5.93;;
46086;SDS011;31824;49.648;8.640;2024-03-07T10:32:26;17.77;;;6.55;;
46086;SDS011;31824;49.648;8.640;2024-03-07T10:35:28;13.18;;;6.65;;
46086;SDS011;31824;49.648;8.640;2024-03-07T10:38:32;14.77;;;6.97;;
46086;SDS011;31824;49.648;8.640;2024-03-07T10:41:35;14.77;;;6.97;;
46086;SDS011;31824;49.648;8.640;2024-03-07T10:44:39;14.75;;;6.60;;
46086;SDS011;31824;49.648;8.640;2024-03-07T10:47:46;19.00;;;6.72;;
46086;SDS011;31824;49.648;8.640;2024-03-07T10:50:54;14.52;;;6.75;;
46086;SDS011;31824;49.648;8.640;2024-03-07T10:54:09;17.13;;;7.35;;
46086;SDS011;31824;49.648;8.640;2024-03-07T10:57:20;14.05;;;6.60;;
46086;SDS011;31824;49.648;8.640;2024-03-07T11:00:31;16.35;;;6.65;;
46086;SDS011;31824;49.648;8.640;2024-03-07T11:03:38;13.98;;;6.53;;
46086;SDS011;31824;49.648;8.640;2024-03-07T11:06:41;15.93;;;7.50;;
46086;SDS011;31824;49.648;8.640;2024-03-07T11:09:43;16.42;;;7.15;;
46086;SDS011;31824;49.648;8.640;2024-03-07T11:12:48;15.60;;;6.97;;
46086;SDS011;31824;49.648;8.640;2024-03-07T11:15:54;13.88;;;6.22;;
46086;SDS011;31824;49.648;8.640;2024-03-07T11:22:29;11.20;;;5.88;;
46086;SDS011;31824;49.648;8.640;2024-03-07T11:25:33;15.15;;;5.97;;
46086;SDS011;31824;49.648;8.640;2024-03-07T11:28:37;12.48;;;5.65;;
46086;SDS011;31824;49.648;8.640;2024-03-07T11:31:41;14.38;;;6.57;;
46086;SDS011;31824;49.648;8.640;2024-03-07T11:34:43;12.50;;;5.88;;
46086;SDS011;31824;49.648;8.640;2024-03-07T11:37:49;11.77;;;5.82;;
46086;SDS011;31824;49.648;8.640;2024-03-07T11:40:53;11.68;;;5.20;;
46086;SDS011;31824;49.648;8.640;2024-03-07T11:43:58;12.23;;;5.40;;
46086;SDS011;31824;49.648;8.640;2024-03-07T11:47:02;12.25;;;5.72;;
46086;SDS011;31824;49.648;8.640;2024-03-07T11:50:10;9.88;;;5.10;;
46086;SDS011;31824;49.648;8.640;2024-03-07T11:56:17;9.35;;;4.75;;
46086;SDS011;31824;49.648;8.640;2024-03-07T11:59:19;10.18;;;5.03;;
46086;SDS011;31824;49.648;8.640;2024-03-07T12:02:22;9.60;;;4.55;;
46086;SDS011;31824;49.648;8.640;2024-03-07T12:05:24;7.63;;;3.88;;
46086;SDS011;31824;49.648;8.640;2024-03-07T12:08:28;8.45;;;4.50;;
46086;SDS011;31824;49.648;8.640;2024-03-07T12:11:31;8.23;;;4.22;;
46086;SDS011;31824;49.648;8.640;2024-03-07T12:14:33;8.68;;;4.75;;
46086;SDS011;31824;49.648;8.640;2024-03-07T12:17:37;7.05;;;3.13;;
46086;SDS011;31824;49.648;8.640;2024-03-07T12:20:41;10.00;;;4.68;;
46086;SDS011;31824;49.648;8.640;2024-03-07T12:23:48;9.07;;;4.68;;
46086;SDS011;31824;49.648;8.640;2024-03-07T12:26:50;7.63;;;3.33;;
46086;SDS011;31824;49.648;8.640;2024-03-07T12:29:52;9.93;;;4.55;;
46086;SDS011;31824;49.648;8.640;2024-03-07T12:32:56;11.52;;;4.60;;
46086;SDS011;31824;49.648;8.640;2024-03-07T12:36:01;10.63;;;4.85;;
46086;SDS011;31824;49.648;8.640;2024-03-07T12:39:08;10.38;;;4.75;;
46086;SDS011;31824;49.648;8.640;2024-03-07T12:42:26;8.63;;;4.80;;
46086;SDS011;31824;49.648;8.640;2024-03-07T12:45:30;8.32;;;4.38;;
46086;SDS011;31824;49.648;8.640;2024-03-07T12:48:36;9.57;;;4.72;;
46086;SDS011;31824;49.648;8.640;2024-03-07T12:51:40;10.30;;;4.65;;
46086;SDS011;31824;49.648;8.640;2024-03-07T12:54:43;10.35;;;4.95;;
46086;SDS011;31824;49.648;8.640;2024-03-07T12:57:45;9.07;;;4.30;;
46086;SDS011;31824;49.648;8.640;2024-03-07T13:00:47;9.25;;;4.60;;
46086;SDS011;31824;49.648;8.640;2024-03-07T13:03:50;11.00;;;4.93;;
46086;SDS011;31824;49.648;8.640;2024-03-07T13:06:52;10.50;;;4.72;;
46086;SDS011;31824;49.648;8.640;2024-03-07T13:09:53;13.73;;;5.57;;
46086;SDS011;31824;49.648;8.640;2024-03-07T13:12:57;6.25;;;3.25;;
46086;SDS011;31824;49.648;8.640;2024-03-07T13:15:59;10.70;;;5.45;;
46086;SDS011;31824;49.648;8.640;2024-03-07T13:19:02;10.65;;;5.43;;
46086;SDS011;31824;49.648;8.640;2024-03-07T13:22:06;10.43;;;4.82;;
46086;SDS011;31824;49.648;8.640;2024-03-07T13:25:08;14.07;;;5.35;;
46086;SDS011;31824;49.648;8.640;2024-03-07T13:28:15;12.77;;;5.78;;
46086;SDS011;31824;49.648;8.640;2024-03-07T13:31:26;11.13;;;5.00;;
46086;SDS011;31824;49.648;8.640;2024-03-07T13:34:30;10.18;;;5.20;;
46086;SDS011;31824;49.648;8.640;2024-03-07T13:37:32;10.50;;;5.03;;
46086;SDS011;31824;49.648;8.640;2024-03-07T13:40:35;11.30;;;5.00;;
46086;SDS011;31824;49.648;8.640;2024-03-07T13:43:40;9.38;;;4.45;;
46086;SDS011;31824;49.648;8.640;2024-03-07T13:46:42;9.82;;;4.55;;
46086;SDS011;31824;49.648;8.640;2024-03-07T13:49:46;11.10;;;4.68;;
46086;SDS011;31824;49.648;8.640;2024-03-07T13:52:50;9.15;;;4.72;;
46086;SDS011;31824;49.648;8.640;2024-03-07T13:56:22;9.35;;;5.22;;
46086;SDS011;31824;49.648;8.640;2024-03-07T14:03:22;8.27;;;3.92;;
46086;SDS011;31824;49.648;8.640;2024-03-07T14:06:38;7.72;;;3.92;;
46086;SDS011;31824;49.648;8.640;2024-03-07T14:13:48;11.45;;;4.82;;
46086;SDS011;31824;49.648;8.640;2024-03-07T14:20:53;10.60;;;5.10;;
46086;SDS011;31824;49.648;8.640;2024-03-07T14:24:12;10.35;;;4.75;;
46086;SDS011;31824;49.648;8.640;2024-03-07T14:27:36;9.52;;;4.60;;
46086;SDS011;31824;49.648;8.640;2024-03-07T14:30:42;9.85;;;4.55;;
46086;SDS011;31824;49.648;8.640;2024-03-07T14:34:00;12.40;;;4.95;;
46086;SDS011;31824;49.648;8.640;2024-03-07T14:37:09;8.18;;;3.83;;
46086;SDS011;31824;49.648;8.640;2024-03-07T14:40:21;9.75;;;4.78;;
46086;SDS011;31824;49.648;8.640;2024-03-07T14:43:23;10.48;;;4.60;;
46086;SDS011;31824;49.648;8.640;2024-03-07T14:46:25;10.77;;;4.38;;
46086;SDS011;31824;49.648;8.640;2024-03-07T14:49:28;10.02;;;4.65;;
46086;SDS011;31824;49.648;8.640;2024-03-07T14:52:30;9.32;;;4.28;;
46086;SDS011;31824;49.648;8.640;2024-03-07T14:55:34;9.27;;;4.65;;
46086;SDS011;31824;49.648;8.640;2024-03-07T14:58:37;10.20;;;4.32;;
46086;SDS011;31824;49.648;8.640;2024-03-07T15:01:39;8.98;;;4.13;;
46086;SDS011;31824;49.648;8.640;2024-03-07T15:04:42;7.45;;;3.45;;
46086;SDS011;31824;49.648;8.640;2024-03-07T15:07:44;9.23;;;4.18;;
46086;SDS011;31824;49.648;8.640;2024-03-07T15:10:50;10.10;;;4.50;;
46086;SDS011;31824;49.648;8.640;2024-03-07T15:13:55;9.75;;;4.65;;
46086;SDS011;31824;49.648;8.640;2024-03-07T15:16:57;8.90;;;4.47;;
46086;SDS011;31824;49.648;8.640;2024-03-07T15:19:59;9.75;;;4.35;;
46086;SDS011;31824;49.648;8.640;2024-03-07T15:23:01;9.65;;;4.22;;
46086;SDS011;31824;49.648;8.640;2024-03-07T15:26:06;10.77;;;4.88;;
46086;SDS011;31824;49.648;8.640;2024-03-07T15:29:07;11.30;;;5.53;;
46086;SDS011;31824;49.648;8.640;2024-03-07T15:32:09;9.65;;;5.00;;
46086;SDS011;31824;49.648;8.640;2024-03-07T15:35:16;10.43;;;4.90;;
46086;SDS011;31824;49.648;8.640;2024-03-07T15:38:19;9.57;;;4.18;;
46086;SDS011;31824;49.648;8.640;2024-03-07T15:41:22;14.00;;;8.73;;
46086;SDS011;31824;49.648;8.640;2024-03-07T15:47:27;9.32;;;4.60;;
46086;SDS011;31824;49.648;8.640;2024-03-07T15:50:30;11.52;;;4.75;;
46086;SDS011;31824;49.648;8.640;2024-03-07T15:53:33;10.07;;;4.45;;
46086;SDS011;31824;49.648;8.640;2024-03-07T15:56:38;9.95;;;4.80;;
46086;SDS011;31824;49.648;8.640;2024-03-07T16:02:45;8.68;;;3.88;;
46086;SDS011;31824;49.648;8.640;2024-03-07T16:05:47;7.82;;;3.50;;
46086;SDS011;31824;49.648;8.640;2024-03-07T16:08:49;10.15;;;4.53;;
46086;SDS011;31824;49.648;8.640;2024-03-07T16:11:53;10.27;;;4.82;;
46086;SDS011;31824;49.648;8.640;2024-03-07T16:14:55;10.32;;;4.75;;
46086;SDS011;31824;49.648;8.640;2024-03-07T16:17:58;8.07;;;3.80;;
46086;SDS011;31824;49.648;8.640;2024-03-07T16:21:00;10.00;;;3.85;;
46086;SDS011;31824;49.648;8.640;2024-03-07T16:24:02;9.85;;;3.90;;
46086;SDS011;31824;49.648;8.640;2024-03-07T16:27:06;11.02;;;4.68;;
46086;SDS011;31824;49.648;8.640;2024-03-07T16:30:08;12.38;;;4.20;;
46086;SDS011;31824;49.648;8.640;2024-03-07T16:33:12;9.48;;;4.03;;
46086;SDS011;31824;49.648;8.640;2024-03-07T16:36:19;9.38;;;3.92;;
46086;SDS011;31824;49.648;8.640;2024-03-07T16:39:21;7.82;;;3.95;;
46086;SDS011;31824;49.648;8.640;2024-03-07T16:42:25;8.48;;;3.83;;
46086;SDS011;31824;49.648;8.640;2024-03-07T16:45:27;8.63;;;3.95;;
46086;SDS011;31824;49.648;8.640;2024-03-07T16:48:30;7.78;;;3.85;;
46086;SDS011;31824;49.648;8.640;2024-03-07T16:51:32;9.07;;;4.15;;
46086;SDS011;31824;49.648;8.640;2024-03-07T16:54:34;7.03;;;3.35;;
46086;SDS011;31824;49.648;8.640;2024-03-07T16:57:38;9.52;;;3.97;;
46086;SDS011;31824;49.648;8.640;2024-03-07T17:00:41;9.43;;;4.20;;
46086;SDS011;31824;49.648;8.640;2024-03-07T17:03:45;8.13;;;3.92;;
46086;SDS011;31824;49.648;8.640;2024-03-07T17:06:47;8.73;;;3.63;;
46086;SDS011;31824;49.648;8.640;2024-03-07T17:09:49;10.50;;;4.47;;
46086;SDS011;31824;49.648;8.640;2024-03-07T17:12:53;10.48;;;4.63;;
46086;SDS011;31824;49.648;8.640;2024-03-07T17:15:54;10.95;;;4.43;;
46086;SDS011;31824;49.648;8.640;2024-03-07T17:18:59;8.68;;;3.85;;
46086;SDS011;31824;49.648;8.640;2024-03-07T17:22:01;10.15;;;4.97;;
46086;SDS011;31824;49.648;8.640;2024-03-07T17:25:03;10.57;;;4.53;;
46086;SDS011;31824;49.648;8.640;2024-03-07T17:28:08;10.20;;;4.75;;
46086;SDS011;31824;49.648;8.640;2024-03-07T17:31:09;16.75;;;7.65;;
46086;SDS011;31824;49.648;8.640;2024-03-07T17:34:12;12.13;;;4.80;;
46086;SDS011;31824;49.648;8.640;2024-03-07T17:37:16;10.23;;;4.47;;
46086;SDS011;31824;49.648;8.640;2024-03-07T17:40:18;9.20;;;4.35;;
46086;SDS011;31824;49.648;8.640;2024-03-07T17:43:23;9.80;;;4.05;;
46086;SDS011;31824;49.648;8.640;2024-03-07T17:46:25;13.02;;;5.13;;
46086;SDS011;31824;49.648;8.640;2024-03-07T17:49:28;12.75;;;4.93;;
46086;SDS011;31824;49.648;8.640;2024-03-07T17:52:30;9.77;;;4.28;;
46086;SDS011;31824;49.648;8.640;2024-03-07T17:55:32;10.02;;;4.35;;
46086;SDS011;31824;49.648;8.640;2024-03-07T17:58:36;11.93;;;5.00;;
46086;SDS011;31824;49.648;8.640;2024-03-07T18:01:38;13.25;;;5.85;;
46086;SDS011;31824;49.648;8.640;2024-03-07T18:04:40;12.70;;;6.00;;
46086;SDS011;31824;49.648;8.640;2024-03-07T18:07:49;12.00;;;5.43;;
46086;SDS011;31824;49.648;8.640;2024-03-07T18:10:50;17.95;;;7.82;;
46086;SDS011;31824;49.648;8.640;2024-03-07T18:13:55;23.17;;;8.95;;
46086;SDS011;31824;49.648;8.640;2024-03-07T18:16:56;37.72;;;15.50;;
46086;SDS011;31824;49.648;8.640;2024-03-07T18:19:58;13.43;;;6.43;;
46086;SDS011;31824;49.648;8.640;2024-03-07T18:23:01;13.48;;;5.38;;
46086;SDS011;31824;49.648;8.640;2024-03-07T18:26:02;15.57;;;7.03;;
46086;SDS011;31824;49.648;8.640;2024-03-07T18:29:08;16.50;;;7.35;;
46086;SDS011;31824;49.648;8.640;2024-03-07T18:32:10;13.23;;;5.57;;
46086;SDS011;31824;49.648;8.640;2024-03-07T18:35:12;10.73;;;4.43;;
46086;SDS011;31824;49.648;8.640;2024-03-07T18:38:14;9.20;;;4.35;;